Station: EBSP - 19/04/2018 09:51Z (il y a 3 minutes)
EBSP 190950Z AUTO 14012KT 100V170 CAVOK 23/02 Q1028
Vent du 140º - 12 kt (vent de direction variable de 100º à 170º)
Visibilité > 10 km et plafond haut ou pas de nuages significatifs
Température: +23ºC - Point de rosée: +02ºC - QNH: 1028 hPa